VABP/BHO METAR and TAF weather

Enter ICAO airport designator
Station Type Date Time Source
VABP METAR 2022/01/25 04:30 UTC NOAA

VABP 250430Z 02005KT 6000 NSC 15/04 Q1017 NOSIG


Station Type Date Time Source
VABP Decoded METAR 2022/01/25 04:30 UTC NOAA

Bhopal / Bairagarh, India (VABP) 23-17N 077-21E 523M
Jan 24, 2022 - 11:30 PM EST / 2022.01.25 0430 UTC
Wind: from the NNE (020 degrees) at 6 MPH (5 KT):0
Visibility: 3 mile(s):0
Temperature: 59 F (15 C)
Dew Point: 39 F (4 C)
Relative Humidity: 47%
Pressure (altimeter): 30.03 in. Hg (1017 hPa)
ob: VABP 250430Z 02005KT 6000 NSC 15/04 Q1017 NOSIG
cycle: 4

Station Type Date Time Source
VABP TAF 2021/03/31 00:00 UTC NOAA

TAF VABP 302300Z 3100/0106 27010KT 5000 HZ NSC
BECMG 3104/3106 29010G20KT 6000 NSC
BECMG 3115/3117 27010KT 5000 HZ NSC
BECMG 0104/0106 27010G20KT 6000 NSC

Example: see airport list